createdAt,value
2023-04-28T00:10:14.279Z,43.23
2023-04-28T00:25:16.229Z,55.63
2023-04-28T00:40:18.069Z,68.47
2023-04-28T00:55:20.466Z,66.53
2023-04-28T01:10:24.447Z,47.47
2023-04-28T01:25:26.493Z,32.97
2023-04-28T01:40:28.519Z,31.37
2023-04-28T01:55:30.368Z,33.97
2023-04-28T02:10:32.734Z,36.83
2023-04-28T02:25:35.030Z,30.53
2023-04-28T02:40:36.909Z,30.23
2023-04-28T02:55:39.026Z,33.03
2023-04-28T03:10:40.939Z,36.90
2023-04-28T03:25:43.257Z,38.60
2023-04-28T03:40:45.200Z,31.87
2023-04-28T03:55:47.139Z,26.63
2023-04-28T04:10:48.950Z,27.23
2023-04-28T04:25:51.078Z,36.83
2023-04-28T04:40:53.036Z,33.13
2023-04-28T04:55:54.920Z,28.60
2023-04-28T05:10:56.784Z,26.73
2023-04-28T05:25:59.504Z,30.93
2023-04-28T05:41:19.728Z,19.27
2023-04-28T05:56:21.723Z,22.33
2023-04-28T06:11:23.541Z,23.10
2023-04-28T06:26:25.990Z,25.97
2023-04-28T06:41:29.387Z,35.17
2023-04-28T06:56:31.381Z,33.93
2023-04-28T07:11:33.589Z,23.97
2023-04-28T07:26:36.217Z,17.27
2023-04-28T07:41:38.716Z,12.20
2023-04-28T07:56:40.633Z,10.87
2023-04-28T08:11:42.540Z,9.10
2023-04-28T08:26:46.202Z,8.03
2023-04-28T08:41:48.095Z,20.37
2023-04-28T08:56:50.623Z,6.90
2023-04-28T09:12:06.118Z,6.83
2023-04-28T09:27:11.898Z,6.60
2023-04-28T09:42:36.559Z,8.00
2023-04-28T09:57:39.777Z,6.83
2023-04-28T10:12:42.215Z,6.90
2023-04-28T10:27:46.430Z,7.27
2023-04-28T10:42:56.702Z,9.23
2023-04-28T10:58:17.103Z,11.17
2023-04-28T11:13:34.641Z,13.70
2023-04-28T11:28:38.311Z,18.07
2023-04-28T11:43:47.449Z,13.63
2023-04-28T11:59:13.571Z,10.03
2023-04-28T12:14:15.404Z,9.17
2023-04-28T12:29:53.337Z,8.53
2023-04-28T12:44:57.345Z,12.90
2023-04-28T12:59:59.327Z,9.23
2023-04-28T13:15:20.184Z,6.33
2023-04-28T13:30:44.495Z,3.67
2023-04-28T13:45:46.677Z,6.13
2023-04-28T14:00:48.586Z,8.67
2023-04-28T14:15:59.090Z,4.43
2023-04-28T14:31:09.197Z,3.63
2023-04-28T14:46:11.601Z,4.67
2023-04-28T15:01:13.768Z,9.13
2023-04-28T15:16:16.425Z,6.93
2023-04-28T15:31:18.760Z,5.97
2023-04-28T15:46:21.983Z,7.73
2023-04-28T16:01:24.521Z,6.57
2023-04-28T16:16:28.533Z,5.47
2023-04-28T16:31:32.667Z,5.13
2023-04-28T16:46:34.715Z,12.97
2023-04-28T17:01:36.822Z,7.77
2023-04-28T17:16:38.767Z,9.30
2023-04-28T17:31:41.079Z,11.13
2023-04-28T17:46:43.325Z,11.43
2023-04-28T18:01:45.170Z,13.33
2023-04-28T18:16:47.976Z,7.60
2023-04-28T18:31:50.273Z,9.63
2023-04-28T18:46:52.270Z,34.50
2023-04-28T19:01:54.189Z,4.67
2023-04-28T19:16:56.163Z,5.70
2023-04-28T19:31:58.520Z,6.97
2023-04-28T19:47:04.346Z,3.43
2023-04-28T20:02:08.502Z,3.17
2023-04-28T20:17:11.545Z,2.20
2023-04-28T20:32:13.697Z,2.53
2023-04-28T20:47:15.694Z,22.97
2023-04-28T21:02:17.710Z,2.97
2023-04-28T21:17:19.642Z,4.60
2023-04-28T21:32:22.238Z,2.50
2023-04-28T21:47:24.503Z,1.60
2023-04-28T22:02:26.598Z,3.27
2023-04-28T22:17:28.757Z,1.90
2023-04-28T22:32:30.876Z,2.87
2023-04-28T22:47:33.866Z,4.40
2023-04-28T23:02:36.331Z,2.30
2023-04-28T23:17:39.008Z,3.03
2023-04-28T23:32:42.659Z,2.80
2023-04-28T23:47:44.524Z,3.10
